sensor_id;sensor_type;location;lat;lon;timestamp;P1;durP1;ratioP1;P2;durP2;ratioP2
76284;SDS011;71676;50.998;7.098;2024-03-08T00:01:06;18.38;;;10.98;;
76284;SDS011;71676;50.998;7.098;2024-03-08T00:03:32;22.58;;;11.80;;
76284;SDS011;71676;50.998;7.098;2024-03-08T00:06:01;20.65;;;11.45;;
76284;SDS011;71676;50.998;7.098;2024-03-08T00:08:27;17.13;;;11.23;;
76284;SDS011;71676;50.998;7.098;2024-03-08T00:10:56;22.70;;;12.15;;
76284;SDS011;71676;50.998;7.098;2024-03-08T00:13:22;23.02;;;12.68;;
76284;SDS011;71676;50.998;7.098;2024-03-08T00:15:50;18.60;;;10.98;;
76284;SDS011;71676;50.998;7.098;2024-03-08T00:18:16;19.80;;;11.88;;
76284;SDS011;71676;50.998;7.098;2024-03-08T00:20:43;19.80;;;12.02;;
76284;SDS011;71676;50.998;7.098;2024-03-08T00:23:11;21.02;;;11.88;;
76284;SDS011;71676;50.998;7.098;2024-03-08T00:25:38;21.50;;;11.55;;
76284;SDS011;71676;50.998;7.098;2024-03-08T00:28:05;19.83;;;11.05;;
76284;SDS011;71676;50.998;7.098;2024-03-08T00:30:32;22.77;;;13.02;;
76284;SDS011;71676;50.998;7.098;2024-03-08T00:32:58;19.10;;;10.82;;
76284;SDS011;71676;50.998;7.098;2024-03-08T00:35:25;23.90;;;12.45;;
76284;SDS011;71676;50.998;7.098;2024-03-08T00:37:51;19.17;;;12.10;;
76284;SDS011;71676;50.998;7.098;2024-03-08T00:40:22;22.73;;;12.20;;
76284;SDS011;71676;50.998;7.098;2024-03-08T00:42:49;21.20;;;12.40;;
76284;SDS011;71676;50.998;7.098;2024-03-08T00:45:16;22.35;;;11.73;;
76284;SDS011;71676;50.998;7.098;2024-03-08T00:47:42;24.48;;;11.95;;
76284;SDS011;71676;50.998;7.098;2024-03-08T00:50:09;20.90;;;12.60;;
76284;SDS011;71676;50.998;7.098;2024-03-08T00:52:36;19.77;;;11.32;;
76284;SDS011;71676;50.998;7.098;2024-03-08T00:55:03;19.80;;;10.75;;
76284;SDS011;71676;50.998;7.098;2024-03-08T00:57:32;20.50;;;11.93;;
76284;SDS011;71676;50.998;7.098;2024-03-08T00:59:58;20.70;;;11.43;;
76284;SDS011;71676;50.998;7.098;2024-03-08T01:02:25;21.50;;;13.10;;
76284;SDS011;71676;50.998;7.098;2024-03-08T01:04:52;20.25;;;11.98;;
76284;SDS011;71676;50.998;7.098;2024-03-08T01:07:18;20.92;;;12.48;;
76284;SDS011;71676;50.998;7.098;2024-03-08T01:09:45;21.40;;;12.40;;
76284;SDS011;71676;50.998;7.098;2024-03-08T01:12:11;21.77;;;11.43;;
76284;SDS011;71676;50.998;7.098;2024-03-08T01:14:39;23.65;;;12.95;;
76284;SDS011;71676;50.998;7.098;2024-03-08T01:17:06;23.00;;;12.38;;
76284;SDS011;71676;50.998;7.098;2024-03-08T01:19:34;20.20;;;11.00;;
76284;SDS011;71676;50.998;7.098;2024-03-08T01:22:01;23.83;;;12.20;;
76284;SDS011;71676;50.998;7.098;2024-03-08T01:24:28;21.27;;;11.50;;
76284;SDS011;71676;50.998;7.098;2024-03-08T01:26:55;20.20;;;9.98;;
76284;SDS011;71676;50.998;7.098;2024-03-08T01:29:21;21.42;;;12.23;;
76284;SDS011;71676;50.998;7.098;2024-03-08T01:31:50;21.35;;;11.07;;
76284;SDS011;71676;50.998;7.098;2024-03-08T01:34:17;22.15;;;13.05;;
76284;SDS011;71676;50.998;7.098;2024-03-08T01:36:44;21.55;;;11.75;;
76284;SDS011;71676;50.998;7.098;2024-03-08T01:39:10;22.27;;;12.80;;
76284;SDS011;71676;50.998;7.098;2024-03-08T01:41:37;23.15;;;12.60;;
76284;SDS011;71676;50.998;7.098;2024-03-08T01:44:05;21.60;;;12.18;;
76284;SDS011;71676;50.998;7.098;2024-03-08T01:46:33;21.27;;;11.73;;
76284;SDS011;71676;50.998;7.098;2024-03-08T01:49:02;20.77;;;11.75;;
76284;SDS011;71676;50.998;7.098;2024-03-08T01:51:29;22.67;;;12.20;;
76284;SDS011;71676;50.998;7.098;2024-03-08T01:53:57;24.10;;;13.85;;
76284;SDS011;71676;50.998;7.098;2024-03-08T01:56:24;22.08;;;12.88;;
76284;SDS011;71676;50.998;7.098;2024-03-08T01:58:51;22.60;;;11.30;;
76284;SDS011;71676;50.998;7.098;2024-03-08T02:01:18;23.55;;;12.27;;
76284;SDS011;71676;50.998;7.098;2024-03-08T02:03:45;24.35;;;11.68;;
76284;SDS011;71676;50.998;7.098;2024-03-08T02:06:13;23.38;;;13.40;;
76284;SDS011;71676;50.998;7.098;2024-03-08T02:08:41;21.70;;;12.02;;
76284;SDS011;71676;50.998;7.098;2024-03-08T02:11:09;22.85;;;12.70;;
76284;SDS011;71676;50.998;7.098;2024-03-08T02:13:36;25.48;;;13.63;;
76284;SDS011;71676;50.998;7.098;2024-03-08T02:16:03;25.92;;;13.35;;
76284;SDS011;71676;50.998;7.098;2024-03-08T02:18:33;19.92;;;11.68;;
76284;SDS011;71676;50.998;7.098;2024-03-08T02:21:02;23.02;;;12.00;;
76284;SDS011;71676;50.998;7.098;2024-03-08T02:23:30;24.25;;;13.07;;
76284;SDS011;71676;50.998;7.098;2024-03-08T02:25:57;22.98;;;12.68;;
76284;SDS011;71676;50.998;7.098;2024-03-08T02:28:24;21.13;;;12.48;;
76284;SDS011;71676;50.998;7.098;2024-03-08T02:30:51;22.85;;;13.00;;
76284;SDS011;71676;50.998;7.098;2024-03-08T02:33:19;17.85;;;9.80;;
76284;SDS011;71676;50.998;7.098;2024-03-08T02:35:46;24.30;;;12.77;;
76284;SDS011;71676;50.998;7.098;2024-03-08T02:38:18;22.63;;;11.82;;
76284;SDS011;71676;50.998;7.098;2024-03-08T02:40:46;23.48;;;12.38;;
76284;SDS011;71676;50.998;7.098;2024-03-08T02:43:16;24.75;;;13.05;;
76284;SDS011;71676;50.998;7.098;2024-03-08T02:45:44;21.15;;;11.23;;
76284;SDS011;71676;50.998;7.098;2024-03-08T02:48:11;20.80;;;12.20;;
76284;SDS011;71676;50.998;7.098;2024-03-08T02:50:38;25.00;;;12.30;;
76284;SDS011;71676;50.998;7.098;2024-03-08T02:53:07;23.42;;;12.38;;
76284;SDS011;71676;50.998;7.098;2024-03-08T02:55:36;23.88;;;12.93;;
76284;SDS011;71676;50.998;7.098;2024-03-08T02:58:03;23.25;;;13.15;;
76284;SDS011;71676;50.998;7.098;2024-03-08T03:00:30;22.65;;;12.82;;
76284;SDS011;71676;50.998;7.098;2024-03-08T03:02:57;23.67;;;12.57;;
76284;SDS011;71676;50.998;7.098;2024-03-08T03:05:24;21.50;;;11.68;;
76284;SDS011;71676;50.998;7.098;2024-03-08T03:07:50;21.38;;;12.40;;
76284;SDS011;71676;50.998;7.098;2024-03-08T03:10:17;22.05;;;12.52;;
76284;SDS011;71676;50.998;7.098;2024-03-08T03:12:48;22.08;;;11.85;;
76284;SDS011;71676;50.998;7.098;2024-03-08T03:15:15;22.27;;;12.40;;
76284;SDS011;71676;50.998;7.098;2024-03-08T03:17:45;23.65;;;11.95;;
76284;SDS011;71676;50.998;7.098;2024-03-08T03:20:13;23.48;;;12.98;;
76284;SDS011;71676;50.998;7.098;2024-03-08T03:22:47;22.83;;;11.90;;
76284;SDS011;71676;50.998;7.098;2024-03-08T03:25:16;24.85;;;13.68;;
76284;SDS011;71676;50.998;7.098;2024-03-08T03:27:49;21.73;;;11.90;;
76284;SDS011;71676;50.998;7.098;2024-03-08T03:30:16;22.38;;;12.18;;
76284;SDS011;71676;50.998;7.098;2024-03-08T03:32:47;25.80;;;13.25;;
76284;SDS011;71676;50.998;7.098;2024-03-08T03:35:14;23.95;;;11.98;;
76284;SDS011;71676;50.998;7.098;2024-03-08T03:37:41;24.92;;;12.30;;
76284;SDS011;71676;50.998;7.098;2024-03-08T03:40:11;23.60;;;13.45;;
76284;SDS011;71676;50.998;7.098;2024-03-08T03:42:39;21.25;;;12.20;;
76284;SDS011;71676;50.998;7.098;2024-03-08T03:45:08;24.33;;;13.75;;
76284;SDS011;71676;50.998;7.098;2024-03-08T03:47:35;19.17;;;8.68;;
76284;SDS011;71676;50.998;7.098;2024-03-08T03:50:03;21.65;;;11.25;;
76284;SDS011;71676;50.998;7.098;2024-03-08T03:52:30;22.20;;;12.63;;
76284;SDS011;71676;50.998;7.098;2024-03-08T03:54:57;21.08;;;10.98;;
76284;SDS011;71676;50.998;7.098;2024-03-08T03:57:24;22.50;;;12.38;;
76284;SDS011;71676;50.998;7.098;2024-03-08T03:59:50;21.23;;;12.43;;
76284;SDS011;71676;50.998;7.098;2024-03-08T04:02:18;23.05;;;12.32;;
76284;SDS011;71676;50.998;7.098;2024-03-08T04:04:45;24.45;;;13.02;;
76284;SDS011;71676;50.998;7.098;2024-03-08T04:07:12;23.85;;;12.23;;
76284;SDS011;71676;50.998;7.098;2024-03-08T04:09:39;24.48;;;13.73;;
76284;SDS011;71676;50.998;7.098;2024-03-08T04:12:06;23.10;;;12.63;;
76284;SDS011;71676;50.998;7.098;2024-03-08T04:14:34;23.88;;;12.45;;
76284;SDS011;71676;50.998;7.098;2024-03-08T04:17:01;22.95;;;11.90;;
76284;SDS011;71676;50.998;7.098;2024-03-08T04:19:29;20.73;;;11.75;;
76284;SDS011;71676;50.998;7.098;2024-03-08T04:21:56;25.00;;;13.57;;
76284;SDS011;71676;50.998;7.098;2024-03-08T04:24:23;21.08;;;9.75;;
76284;SDS011;71676;50.998;7.098;2024-03-08T04:26:50;21.60;;;12.15;;
76284;SDS011;71676;50.998;7.098;2024-03-08T04:29:16;24.10;;;12.45;;
76284;SDS011;71676;50.998;7.098;2024-03-08T04:31:43;22.30;;;12.77;;
76284;SDS011;71676;50.998;7.098;2024-03-08T04:34:10;24.00;;;12.65;;
76284;SDS011;71676;50.998;7.098;2024-03-08T04:36:38;19.48;;;10.25;;
76284;SDS011;71676;50.998;7.098;2024-03-08T04:39:05;20.15;;;10.18;;
76284;SDS011;71676;50.998;7.098;2024-03-08T04:41:37;24.88;;;12.05;;
76284;SDS011;71676;50.998;7.098;2024-03-08T04:44:04;22.33;;;10.45;;
76284;SDS011;71676;50.998;7.098;2024-03-08T04:46:30;23.88;;;12.73;;
76284;SDS011;71676;50.998;7.098;2024-03-08T04:48:57;24.27;;;13.25;;
76284;SDS011;71676;50.998;7.098;2024-03-08T04:51:24;21.48;;;12.57;;
76284;SDS011;71676;50.998;7.098;2024-03-08T04:53:52;24.75;;;12.27;;
76284;SDS011;71676;50.998;7.098;2024-03-08T04:56:19;22.95;;;12.85;;
76284;SDS011;71676;50.998;7.098;2024-03-08T04:58:46;24.55;;;13.50;;
76284;SDS011;71676;50.998;7.098;2024-03-08T05:01:13;22.10;;;12.52;;
76284;SDS011;71676;50.998;7.098;2024-03-08T05:03:40;26.48;;;13.52;;
76284;SDS011;71676;50.998;7.098;2024-03-08T05:06:06;22.38;;;12.52;;
76284;SDS011;71676;50.998;7.098;2024-03-08T05:08:33;24.23;;;13.15;;
76284;SDS011;71676;50.998;7.098;2024-03-08T05:11:01;24.33;;;13.00;;
76284;SDS011;71676;50.998;7.098;2024-03-08T05:13:29;24.58;;;13.52;;
76284;SDS011;71676;50.998;7.098;2024-03-08T05:15:56;25.58;;;13.27;;
76284;SDS011;71676;50.998;7.098;2024-03-08T05:18:23;25.52;;;14.18;;
76284;SDS011;71676;50.998;7.098;2024-03-08T05:20:50;23.33;;;12.23;;
76284;SDS011;71676;50.998;7.098;2024-03-08T05:23:17;22.58;;;12.15;;
76284;SDS011;71676;50.998;7.098;2024-03-08T05:25:44;28.15;;;14.18;;
76284;SDS011;71676;50.998;7.098;2024-03-08T05:28:13;25.52;;;11.90;;
76284;SDS011;71676;50.998;7.098;2024-03-08T05:30:39;24.77;;;14.60;;
76284;SDS011;71676;50.998;7.098;2024-03-08T05:33:06;23.13;;;12.70;;
76284;SDS011;71676;50.998;7.098;2024-03-08T05:35:35;23.20;;;12.30;;
76284;SDS011;71676;50.998;7.098;2024-03-08T05:38:02;28.25;;;13.68;;
76284;SDS011;71676;50.998;7.098;2024-03-08T05:40:28;25.20;;;12.77;;
76284;SDS011;71676;50.998;7.098;2024-03-08T05:42:56;27.40;;;13.25;;
76284;SDS011;71676;50.998;7.098;2024-03-08T05:45:25;25.67;;;13.02;;
76284;SDS011;71676;50.998;7.098;2024-03-08T05:47:51;30.48;;;14.93;;
76284;SDS011;71676;50.998;7.098;2024-03-08T05:50:18;21.88;;;12.30;;
76284;SDS011;71676;50.998;7.098;2024-03-08T05:52:44;24.48;;;12.85;;
76284;SDS011;71676;50.998;7.098;2024-03-08T05:55:12;27.73;;;13.13;;
76284;SDS011;71676;50.998;7.098;2024-03-08T05:57:39;24.83;;;13.38;;
76284;SDS011;71676;50.998;7.098;2024-03-08T06:00:07;20.98;;;11.23;;
76284;SDS011;71676;50.998;7.098;2024-03-08T06:02:37;23.40;;;12.88;;
76284;SDS011;71676;50.998;7.098;2024-03-08T06:05:06;26.73;;;12.65;;
76284;SDS011;71676;50.998;7.098;2024-03-08T06:07:34;27.10;;;13.05;;
76284;SDS011;71676;50.998;7.098;2024-03-08T06:10:01;28.50;;;14.05;;
76284;SDS011;71676;50.998;7.098;2024-03-08T06:12:28;23.13;;;12.75;;
76284;SDS011;71676;50.998;7.098;2024-03-08T06:14:58;24.02;;;12.70;;
76284;SDS011;71676;50.998;7.098;2024-03-08T06:17:25;28.10;;;13.38;;
76284;SDS011;71676;50.998;7.098;2024-03-08T06:19:53;24.35;;;13.30;;
76284;SDS011;71676;50.998;7.098;2024-03-08T06:22:20;27.95;;;14.35;;
76284;SDS011;71676;50.998;7.098;2024-03-08T06:24:46;22.63;;;12.50;;
76284;SDS011;71676;50.998;7.098;2024-03-08T06:27:13;24.83;;;12.68;;
76284;SDS011;71676;50.998;7.098;2024-03-08T06:29:40;23.50;;;12.23;;
76284;SDS011;71676;50.998;7.098;2024-03-08T06:32:06;23.85;;;13.30;;
76284;SDS011;71676;50.998;7.098;2024-03-08T06:34:33;23.58;;;13.45;;
76284;SDS011;71676;50.998;7.098;2024-03-08T06:37:02;30.02;;;13.82;;
76284;SDS011;71676;50.998;7.098;2024-03-08T06:39:28;21.88;;;10.55;;
76284;SDS011;71676;50.998;7.098;2024-03-08T06:41:56;23.60;;;12.38;;
76284;SDS011;71676;50.998;7.098;2024-03-08T06:44:23;25.77;;;12.95;;
76284;SDS011;71676;50.998;7.098;2024-03-08T06:46:50;24.52;;;13.07;;
76284;SDS011;71676;50.998;7.098;2024-03-08T06:49:17;24.45;;;13.07;;
76284;SDS011;71676;50.998;7.098;2024-03-08T06:51:44;25.70;;;13.48;;
76284;SDS011;71676;50.998;7.098;2024-03-08T06:54:12;23.75;;;14.25;;
76284;SDS011;71676;50.998;7.098;2024-03-08T06:56:39;24.88;;;12.68;;
76284;SDS011;71676;50.998;7.098;2024-03-08T06:59:06;26.65;;;13.60;;
76284;SDS011;71676;50.998;7.098;2024-03-08T07:01:35;26.35;;;13.60;;
76284;SDS011;71676;50.998;7.098;2024-03-08T07:04:03;27.65;;;14.73;;
76284;SDS011;71676;50.998;7.098;2024-03-08T07:06:31;23.58;;;12.48;;
76284;SDS011;71676;50.998;7.098;2024-03-08T07:08:58;22.27;;;13.13;;
76284;SDS011;71676;50.998;7.098;2024-03-08T07:11:26;26.77;;;12.52;;
76284;SDS011;71676;50.998;7.098;2024-03-08T07:13:53;27.13;;;12.75;;
76284;SDS011;71676;50.998;7.098;2024-03-08T07:16:20;22.75;;;12.02;;
76284;SDS011;71676;50.998;7.098;2024-03-08T07:18:47;23.33;;;11.77;;
76284;SDS011;71676;50.998;7.098;2024-03-08T07:21:17;24.42;;;13.25;;
76284;SDS011;71676;50.998;7.098;2024-03-08T07:23:46;24.20;;;12.35;;
76284;SDS011;71676;50.998;7.098;2024-03-08T07:26:24;21.77;;;10.82;;
76284;SDS011;71676;50.998;7.098;2024-03-08T07:28:52;24.63;;;13.82;;
76284;SDS011;71676;50.998;7.098;2024-03-08T07:31:20;24.45;;;14.20;;
76284;SDS011;71676;50.998;7.098;2024-03-08T07:33:56;25.80;;;12.98;;
76284;SDS011;71676;50.998;7.098;2024-03-08T07:36:24;24.52;;;12.73;;
76284;SDS011;71676;50.998;7.098;2024-03-08T07:38:50;21.55;;;13.43;;
76284;SDS011;71676;50.998;7.098;2024-03-08T07:41:17;21.88;;;12.55;;
76284;SDS011;71676;50.998;7.098;2024-03-08T07:43:44;25.80;;;13.98;;
76284;SDS011;71676;50.998;7.098;2024-03-08T07:46:12;22.10;;;12.82;;
76284;SDS011;71676;50.998;7.098;2024-03-08T07:48:39;21.65;;;12.95;;
76284;SDS011;71676;50.998;7.098;2024-03-08T07:51:06;22.95;;;12.63;;
76284;SDS011;71676;50.998;7.098;2024-03-08T07:53:34;23.58;;;13.82;;
76284;SDS011;71676;50.998;7.098;2024-03-08T07:56:01;23.23;;;12.07;;
76284;SDS011;71676;50.998;7.098;2024-03-08T07:58:27;23.65;;;12.20;;
76284;SDS011;71676;50.998;7.098;2024-03-08T08:00:54;26.20;;;13.30;;
76284;SDS011;71676;50.998;7.098;2024-03-08T08:03:22;26.90;;;13.65;;
76284;SDS011;71676;50.998;7.098;2024-03-08T08:05:49;22.50;;;11.95;;
76284;SDS011;71676;50.998;7.098;2024-03-08T08:08:15;21.25;;;12.40;;
76284;SDS011;71676;50.998;7.098;2024-03-08T08:10:42;24.35;;;12.63;;
76284;SDS011;71676;50.998;7.098;2024-03-08T08:13:09;21.13;;;12.27;;
76284;SDS011;71676;50.998;7.098;2024-03-08T08:15:36;22.80;;;13.00;;
76284;SDS011;71676;50.998;7.098;2024-03-08T08:18:02;20.65;;;11.57;;
76284;SDS011;71676;50.998;7.098;2024-03-08T08:20:32;21.23;;;11.95;;
76284;SDS011;71676;50.998;7.098;2024-03-08T08:22:58;20.60;;;10.43;;
76284;SDS011;71676;50.998;7.098;2024-03-08T08:25:25;22.63;;;11.73;;
76284;SDS011;71676;50.998;7.098;2024-03-08T08:27:52;22.67;;;12.30;;
76284;SDS011;71676;50.998;7.098;2024-03-08T08:30:19;19.50;;;10.73;;
76284;SDS011;71676;50.998;7.098;2024-03-08T08:32:45;25.65;;;13.05;;
76284;SDS011;71676;50.998;7.098;2024-03-08T08:35:13;22.40;;;11.82;;
76284;SDS011;71676;50.998;7.098;2024-03-08T08:37:41;17.58;;;9.35;;
76284;SDS011;71676;50.998;7.098;2024-03-08T08:40:09;23.00;;;12.63;;
76284;SDS011;71676;50.998;7.098;2024-03-08T08:42:39;20.77;;;11.68;;
76284;SDS011;71676;50.998;7.098;2024-03-08T08:45:06;22.33;;;11.77;;
76284;SDS011;71676;50.998;7.098;2024-03-08T08:47:34;20.20;;;11.50;;
76284;SDS011;71676;50.998;7.098;2024-03-08T08:50:01;22.42;;;11.75;;
76284;SDS011;71676;50.998;7.098;2024-03-08T08:52:27;23.02;;;11.70;;
76284;SDS011;71676;50.998;7.098;2024-03-08T08:54:55;16.45;;;10.38;;
76284;SDS011;71676;50.998;7.098;2024-03-08T08:57:22;19.02;;;11.27;;
76284;SDS011;71676;50.998;7.098;2024-03-08T08:59:49;22.58;;;12.20;;
76284;SDS011;71676;50.998;7.098;2024-03-08T09:02:16;19.35;;;10.98;;
76284;SDS011;71676;50.998;7.098;2024-03-08T09:04:45;20.80;;;11.48;;
76284;SDS011;71676;50.998;7.098;2024-03-08T09:07:13;17.15;;;10.48;;
76284;SDS011;71676;50.998;7.098;2024-03-08T09:09:39;16.58;;;10.18;;
76284;SDS011;71676;50.998;7.098;2024-03-08T09:12:09;20.27;;;11.13;;
76284;SDS011;71676;50.998;7.098;2024-03-08T09:14:38;20.58;;;10.85;;
76284;SDS011;71676;50.998;7.098;2024-03-08T09:17:05;18.55;;;11.55;;
76284;SDS011;71676;50.998;7.098;2024-03-08T09:19:33;21.55;;;11.43;;
76284;SDS011;71676;50.998;7.098;2024-03-08T09:22:00;17.85;;;10.52;;
76284;SDS011;71676;50.998;7.098;2024-03-08T09:24:28;18.85;;;10.75;;
76284;SDS011;71676;50.998;7.098;2024-03-08T09:26:56;16.67;;;9.35;;
76284;SDS011;71676;50.998;7.098;2024-03-08T09:29:25;17.70;;;10.93;;
76284;SDS011;71676;50.998;7.098;2024-03-08T09:31:52;17.42;;;10.63;;
76284;SDS011;71676;50.998;7.098;2024-03-08T09:34:18;17.40;;;10.52;;
76284;SDS011;71676;50.998;7.098;2024-03-08T09:36:45;16.83;;;10.10;;
76284;SDS011;71676;50.998;7.098;2024-03-08T09:39:12;16.55;;;9.85;;
76284;SDS011;71676;50.998;7.098;2024-03-08T09:41:41;18.42;;;10.27;;
76284;SDS011;71676;50.998;7.098;2024-03-08T09:44:09;16.23;;;9.75;;
76284;SDS011;71676;50.998;7.098;2024-03-08T09:46:37;16.92;;;9.88;;
76284;SDS011;71676;50.998;7.098;2024-03-08T09:49:03;18.48;;;11.18;;
76284;SDS011;71676;50.998;7.098;2024-03-08T09:51:31;17.27;;;10.27;;
76284;SDS011;71676;50.998;7.098;2024-03-08T09:54:01;14.18;;;8.45;;
76284;SDS011;71676;50.998;7.098;2024-03-08T09:56:29;18.92;;;11.70;;
76284;SDS011;71676;50.998;7.098;2024-03-08T09:58:58;19.63;;;10.68;;
76284;SDS011;71676;50.998;7.098;2024-03-08T10:01:47;16.75;;;10.85;;
76284;SDS011;71676;50.998;7.098;2024-03-08T10:04:14;19.15;;;11.82;;
76284;SDS011;71676;50.998;7.098;2024-03-08T10:06:42;17.73;;;9.93;;
76284;SDS011;71676;50.998;7.098;2024-03-08T10:09:09;18.08;;;11.07;;
76284;SDS011;71676;50.998;7.098;2024-03-08T10:11:36;17.00;;;10.82;;
76284;SDS011;71676;50.998;7.098;2024-03-08T10:14:03;16.33;;;10.20;;
76284;SDS011;71676;50.998;7.098;2024-03-08T10:16:31;15.68;;;9.05;;
76284;SDS011;71676;50.998;7.098;2024-03-08T10:19:00;41.92;;;21.38;;
76284;SDS011;71676;50.998;7.098;2024-03-08T10:21:28;28.20;;;13.32;;
76284;SDS011;71676;50.998;7.098;2024-03-08T10:23:55;26.35;;;14.20;;
76284;SDS011;71676;50.998;7.098;2024-03-08T10:26:23;21.52;;;12.35;;
76284;SDS011;71676;50.998;7.098;2024-03-08T10:28:50;24.00;;;13.18;;
76284;SDS011;71676;50.998;7.098;2024-03-08T10:31:18;19.35;;;11.73;;
76284;SDS011;71676;50.998;7.098;2024-03-08T10:33:46;19.27;;;11.02;;
76284;SDS011;71676;50.998;7.098;2024-03-08T10:36:14;18.40;;;10.77;;
76284;SDS011;71676;50.998;7.098;2024-03-08T10:38:42;15.98;;;8.88;;
76284;SDS011;71676;50.998;7.098;2024-03-08T10:41:12;15.35;;;9.00;;
76284;SDS011;71676;50.998;7.098;2024-03-08T10:43:43;15.65;;;9.45;;
76284;SDS011;71676;50.998;7.098;2024-03-08T10:46:35;14.75;;;8.75;;
76284;SDS011;71676;50.998;7.098;2024-03-08T10:49:20;14.48;;;8.82;;
76284;SDS011;71676;50.998;7.098;2024-03-08T10:54:20;14.85;;;9.23;;
76284;SDS011;71676;50.998;7.098;2024-03-08T10:56:47;13.95;;;7.97;;
76284;SDS011;71676;50.998;7.098;2024-03-08T10:59:15;13.80;;;8.55;;
76284;SDS011;71676;50.998;7.098;2024-03-08T11:01:44;15.40;;;8.70;;
76284;SDS011;71676;50.998;7.098;2024-03-08T11:04:11;14.32;;;7.47;;
76284;SDS011;71676;50.998;7.098;2024-03-08T11:06:41;15.38;;;9.52;;
76284;SDS011;71676;50.998;7.098;2024-03-08T11:12:04;15.40;;;8.43;;
76284;SDS011;71676;50.998;7.098;2024-03-08T11:14:45;16.15;;;9.40;;
76284;SDS011;71676;50.998;7.098;2024-03-08T11:17:14;16.98;;;10.35;;
76284;SDS011;71676;50.998;7.098;2024-03-08T11:19:45;14.75;;;9.07;;
76284;SDS011;71676;50.998;7.098;2024-03-08T11:22:20;15.38;;;9.13;;
76284;SDS011;71676;50.998;7.098;2024-03-08T11:24:51;16.52;;;9.30;;
76284;SDS011;71676;50.998;7.098;2024-03-08T11:27:17;13.85;;;8.38;;
76284;SDS011;71676;50.998;7.098;2024-03-08T11:29:45;13.98;;;7.65;;
76284;SDS011;71676;50.998;7.098;2024-03-08T11:32:27;14.95;;;9.40;;
76284;SDS011;71676;50.998;7.098;2024-03-08T11:34:55;14.23;;;8.70;;
76284;SDS011;71676;50.998;7.098;2024-03-08T11:37:22;16.08;;;10.23;;
76284;SDS011;71676;50.998;7.098;2024-03-08T11:39:51;15.13;;;9.02;;
76284;SDS011;71676;50.998;7.098;2024-03-08T11:42:23;14.23;;;8.43;;
76284;SDS011;71676;50.998;7.098;2024-03-08T11:44:51;13.88;;;8.75;;
76284;SDS011;71676;50.998;7.098;2024-03-08T11:47:19;13.02;;;8.23;;
76284;SDS011;71676;50.998;7.098;2024-03-08T11:49:46;12.57;;;7.97;;
76284;SDS011;71676;50.998;7.098;2024-03-08T11:52:13;13.80;;;8.38;;
76284;SDS011;71676;50.998;7.098;2024-03-08T11:54:42;14.80;;;8.38;;
76284;SDS011;71676;50.998;7.098;2024-03-08T11:57:16;14.35;;;8.68;;
76284;SDS011;71676;50.998;7.098;2024-03-08T11:59:49;12.50;;;7.80;;
76284;SDS011;71676;50.998;7.098;2024-03-08T12:02:16;13.10;;;8.15;;
76284;SDS011;71676;50.998;7.098;2024-03-08T12:04:44;14.80;;;8.45;;
76284;SDS011;71676;50.998;7.098;2024-03-08T12:07:11;17.80;;;8.82;;
76284;SDS011;71676;50.998;7.098;2024-03-08T12:09:39;12.75;;;7.32;;
76284;SDS011;71676;50.998;7.098;2024-03-08T12:12:11;12.45;;;7.68;;
76284;SDS011;71676;50.998;7.098;2024-03-08T12:14:39;12.75;;;7.35;;
76284;SDS011;71676;50.998;7.098;2024-03-08T12:17:09;12.32;;;7.85;;
76284;SDS011;71676;50.998;7.098;2024-03-08T12:19:36;14.32;;;8.00;;
76284;SDS011;71676;50.998;7.098;2024-03-08T12:22:07;12.27;;;7.18;;
76284;SDS011;71676;50.998;7.098;2024-03-08T12:24:35;13.65;;;8.35;;
76284;SDS011;71676;50.998;7.098;2024-03-08T12:27:17;13.05;;;7.38;;
76284;SDS011;71676;50.998;7.098;2024-03-08T12:29:46;12.40;;;8.07;;
76284;SDS011;71676;50.998;7.098;2024-03-08T12:32:12;13.20;;;8.43;;
76284;SDS011;71676;50.998;7.098;2024-03-08T12:34:39;14.95;;;6.90;;
76284;SDS011;71676;50.998;7.098;2024-03-08T12:37:06;12.45;;;7.20;;
76284;SDS011;71676;50.998;7.098;2024-03-08T12:39:34;12.02;;;6.53;;
76284;SDS011;71676;50.998;7.098;2024-03-08T12:42:02;11.90;;;6.97;;
76284;SDS011;71676;50.998;7.098;2024-03-08T12:44:29;13.43;;;8.05;;
76284;SDS011;71676;50.998;7.098;2024-03-08T12:46:57;11.48;;;6.20;;
76284;SDS011;71676;50.998;7.098;2024-03-08T12:49:25;12.57;;;7.47;;
76284;SDS011;71676;50.998;7.098;2024-03-08T12:51:52;13.05;;;7.90;;
76284;SDS011;71676;50.998;7.098;2024-03-08T12:54:18;13.82;;;8.15;;
76284;SDS011;71676;50.998;7.098;2024-03-08T12:56:48;13.65;;;7.90;;
76284;SDS011;71676;50.998;7.098;2024-03-08T12:59:18;14.50;;;8.15;;
76284;SDS011;71676;50.998;7.098;2024-03-08T13:01:46;15.52;;;9.27;;
76284;SDS011;71676;50.998;7.098;2024-03-08T13:04:15;13.85;;;7.57;;
76284;SDS011;71676;50.998;7.098;2024-03-08T13:06:41;12.23;;;7.30;;
76284;SDS011;71676;50.998;7.098;2024-03-08T13:09:08;15.10;;;7.65;;
76284;SDS011;71676;50.998;7.098;2024-03-08T13:11:35;13.02;;;7.97;;
76284;SDS011;71676;50.998;7.098;2024-03-08T13:14:02;12.65;;;7.45;;
76284;SDS011;71676;50.998;7.098;2024-03-08T13:16:30;12.90;;;7.60;;
76284;SDS011;71676;50.998;7.098;2024-03-08T13:18:57;12.80;;;7.10;;
76284;SDS011;71676;50.998;7.098;2024-03-08T13:21:25;11.80;;;7.00;;
76284;SDS011;71676;50.998;7.098;2024-03-08T13:23:54;13.23;;;7.60;;
76284;SDS011;71676;50.998;7.098;2024-03-08T13:26:21;13.32;;;7.72;;
76284;SDS011;71676;50.998;7.098;2024-03-08T13:28:51;13.98;;;8.13;;
76284;SDS011;71676;50.998;7.098;2024-03-08T13:31:18;12.82;;;7.90;;
76284;SDS011;71676;50.998;7.098;2024-03-08T13:33:45;13.98;;;8.55;;
76284;SDS011;71676;50.998;7.098;2024-03-08T13:36:12;14.90;;;9.15;;
76284;SDS011;71676;50.998;7.098;2024-03-08T13:38:43;12.82;;;7.97;;
76284;SDS011;71676;50.998;7.098;2024-03-08T13:41:10;13.40;;;8.07;;
76284;SDS011;71676;50.998;7.098;2024-03-08T13:43:39;14.32;;;8.43;;
76284;SDS011;71676;50.998;7.098;2024-03-08T13:46:06;13.93;;;7.80;;
76284;SDS011;71676;50.998;7.098;2024-03-08T13:48:35;14.10;;;8.85;;
76284;SDS011;71676;50.998;7.098;2024-03-08T13:51:02;15.15;;;9.15;;
76284;SDS011;71676;50.998;7.098;2024-03-08T13:53:30;15.68;;;9.00;;
76284;SDS011;71676;50.998;7.098;2024-03-08T13:55:58;14.95;;;9.20;;
76284;SDS011;71676;50.998;7.098;2024-03-08T13:58:25;14.48;;;8.35;;
76284;SDS011;71676;50.998;7.098;2024-03-08T14:00:52;13.50;;;8.25;;
76284;SDS011;71676;50.998;7.098;2024-03-08T14:03:18;13.90;;;8.90;;
76284;SDS011;71676;50.998;7.098;2024-03-08T14:05:46;12.50;;;7.60;;
76284;SDS011;71676;50.998;7.098;2024-03-08T14:08:12;13.60;;;8.75;;
76284;SDS011;71676;50.998;7.098;2024-03-08T14:10:41;14.23;;;8.73;;
76284;SDS011;71676;50.998;7.098;2024-03-08T14:13:09;14.88;;;8.95;;
76284;SDS011;71676;50.998;7.098;2024-03-08T14:15:36;14.50;;;8.52;;
76284;SDS011;71676;50.998;7.098;2024-03-08T14:18:07;12.90;;;8.90;;
76284;SDS011;71676;50.998;7.098;2024-03-08T14:20:33;14.63;;;8.43;;
76284;SDS011;71676;50.998;7.098;2024-03-08T14:23:00;14.45;;;9.60;;
76284;SDS011;71676;50.998;7.098;2024-03-08T14:25:27;14.80;;;9.27;;
76284;SDS011;71676;50.998;7.098;2024-03-08T14:27:55;14.75;;;9.00;;
76284;SDS011;71676;50.998;7.098;2024-03-08T14:30:24;14.38;;;9.07;;
76284;SDS011;71676;50.998;7.098;2024-03-08T14:33:08;14.95;;;9.52;;
76284;SDS011;71676;50.998;7.098;2024-03-08T14:35:35;15.85;;;9.52;;